sensor_id;sensor_type;location;lat;lon;timestamp;P1;durP1;ratioP1;P2;durP2;ratioP2
17943;SDS011;9097;47.028;15.444;2022-09-30T00:01:09;4.37;;;2.63;;
17943;SDS011;9097;47.028;15.444;2022-09-30T00:04:14;5.00;;;2.47;;
17943;SDS011;9097;47.028;15.444;2022-09-30T00:07:17;4.23;;;2.33;;
17943;SDS011;9097;47.028;15.444;2022-09-30T00:10:20;3.37;;;2.13;;
17943;SDS011;9097;47.028;15.444;2022-09-30T00:13:22;5.50;;;2.57;;
17943;SDS011;9097;47.028;15.444;2022-09-30T00:16:29;5.23;;;2.70;;
17943;SDS011;9097;47.028;15.444;2022-09-30T00:19:33;5.40;;;3.03;;
17943;SDS011;9097;47.028;15.444;2022-09-30T00:22:36;4.83;;;2.97;;
17943;SDS011;9097;47.028;15.444;2022-09-30T00:25:39;4.73;;;3.13;;
17943;SDS011;9097;47.028;15.444;2022-09-30T00:28:43;3.97;;;2.33;;
17943;SDS011;9097;47.028;15.444;2022-09-30T00:31:46;4.43;;;2.33;;
17943;SDS011;9097;47.028;15.444;2022-09-30T00:34:50;5.90;;;2.47;;
17943;SDS011;9097;47.028;15.444;2022-09-30T00:37:53;5.97;;;2.60;;
17943;SDS011;9097;47.028;15.444;2022-09-30T00:40:56;4.97;;;2.67;;
17943;SDS011;9097;47.028;15.444;2022-09-30T00:43:59;4.87;;;2.60;;
17943;SDS011;9097;47.028;15.444;2022-09-30T00:47:02;7.17;;;3.10;;
17943;SDS011;9097;47.028;15.444;2022-09-30T00:50:12;4.33;;;2.30;;
17943;SDS011;9097;47.028;15.444;2022-09-30T00:53:17;3.83;;;2.30;;
17943;SDS011;9097;47.028;15.444;2022-09-30T00:56:21;4.67;;;2.70;;
17943;SDS011;9097;47.028;15.444;2022-09-30T00:59:26;3.80;;;2.50;;
17943;SDS011;9097;47.028;15.444;2022-09-30T01:02:30;3.97;;;2.07;;
17943;SDS011;9097;47.028;15.444;2022-09-30T01:05:34;5.97;;;2.80;;
17943;SDS011;9097;47.028;15.444;2022-09-30T01:08:38;5.20;;;2.93;;
17943;SDS011;9097;47.028;15.444;2022-09-30T01:11:41;4.57;;;2.60;;
17943;SDS011;9097;47.028;15.444;2022-09-30T01:14:43;4.53;;;2.27;;
17943;SDS011;9097;47.028;15.444;2022-09-30T01:17:49;5.87;;;2.37;;
17943;SDS011;9097;47.028;15.444;2022-09-30T01:21:08;3.67;;;2.23;;
17943;SDS011;9097;47.028;15.444;2022-09-30T01:24:17;4.87;;;2.47;;
17943;SDS011;9097;47.028;15.444;2022-09-30T01:27:35;5.03;;;2.50;;
17943;SDS011;9097;47.028;15.444;2022-09-30T01:30:50;5.03;;;2.47;;
17943;SDS011;9097;47.028;15.444;2022-09-30T01:33:56;4.57;;;2.37;;
17943;SDS011;9097;47.028;15.444;2022-09-30T01:37:06;7.97;;;3.10;;
17943;SDS011;9097;47.028;15.444;2022-09-30T01:40:14;3.73;;;2.50;;
17943;SDS011;9097;47.028;15.444;2022-09-30T01:43:23;4.40;;;2.87;;
17943;SDS011;9097;47.028;15.444;2022-09-30T01:46:33;4.97;;;2.67;;
17943;SDS011;9097;47.028;15.444;2022-09-30T01:49:39;4.10;;;2.43;;
17943;SDS011;9097;47.028;15.444;2022-09-30T01:52:46;2.50;;;1.97;;
17943;SDS011;9097;47.028;15.444;2022-09-30T01:55:52;3.70;;;2.07;;
17943;SDS011;9097;47.028;15.444;2022-09-30T01:58:58;2.20;;;1.80;;
17943;SDS011;9097;47.028;15.444;2022-09-30T02:02:05;4.07;;;1.83;;
17943;SDS011;9097;47.028;15.444;2022-09-30T02:05:11;3.13;;;1.87;;
17943;SDS011;9097;47.028;15.444;2022-09-30T02:08:18;2.93;;;1.60;;
17943;SDS011;9097;47.028;15.444;2022-09-30T02:11:24;2.63;;;1.90;;
17943;SDS011;9097;47.028;15.444;2022-09-30T02:14:27;3.03;;;1.73;;
17943;SDS011;9097;47.028;15.444;2022-09-30T02:17:34;3.80;;;2.37;;
17943;SDS011;9097;47.028;15.444;2022-09-30T02:20:40;2.60;;;1.70;;
17943;SDS011;9097;47.028;15.444;2022-09-30T02:23:43;3.00;;;1.80;;
17943;SDS011;9097;47.028;15.444;2022-09-30T02:26:47;2.97;;;2.00;;
17943;SDS011;9097;47.028;15.444;2022-09-30T02:29:51;2.83;;;1.90;;
17943;SDS011;9097;47.028;15.444;2022-09-30T02:32:58;4.03;;;2.00;;
17943;SDS011;9097;47.028;15.444;2022-09-30T02:36:03;4.00;;;2.17;;
17943;SDS011;9097;47.028;15.444;2022-09-30T02:39:08;4.20;;;1.90;;
17943;SDS011;9097;47.028;15.444;2022-09-30T02:42:12;5.20;;;1.83;;
17943;SDS011;9097;47.028;15.444;2022-09-30T02:45:20;3.40;;;2.37;;
17943;SDS011;9097;47.028;15.444;2022-09-30T02:48:26;3.00;;;2.43;;
17943;SDS011;9097;47.028;15.444;2022-09-30T02:51:34;4.27;;;1.83;;
17943;SDS011;9097;47.028;15.444;2022-09-30T02:54:41;2.87;;;2.20;;
17943;SDS011;9097;47.028;15.444;2022-09-30T02:57:53;4.47;;;2.70;;
17943;SDS011;9097;47.028;15.444;2022-09-30T03:00:57;5.83;;;3.30;;
17943;SDS011;9097;47.028;15.444;2022-09-30T03:04:02;6.00;;;2.37;;
17943;SDS011;9097;47.028;15.444;2022-09-30T03:07:07;3.73;;;2.23;;
17943;SDS011;9097;47.028;15.444;2022-09-30T03:10:11;3.23;;;2.37;;
17943;SDS011;9097;47.028;15.444;2022-09-30T03:13:18;2.70;;;1.83;;
17943;SDS011;9097;47.028;15.444;2022-09-30T03:16:25;6.47;;;3.00;;
17943;SDS011;9097;47.028;15.444;2022-09-30T03:19:39;4.27;;;2.47;;
17943;SDS011;9097;47.028;15.444;2022-09-30T03:22:46;4.27;;;2.07;;
17943;SDS011;9097;47.028;15.444;2022-09-30T03:25:53;5.60;;;2.87;;
17943;SDS011;9097;47.028;15.444;2022-09-30T03:29:00;4.07;;;2.63;;
17943;SDS011;9097;47.028;15.444;2022-09-30T03:32:08;5.27;;;2.50;;
17943;SDS011;9097;47.028;15.444;2022-09-30T03:35:17;4.97;;;2.07;;
17943;SDS011;9097;47.028;15.444;2022-09-30T03:38:24;5.33;;;3.33;;
17943;SDS011;9097;47.028;15.444;2022-09-30T03:41:30;3.37;;;2.27;;
17943;SDS011;9097;47.028;15.444;2022-09-30T03:44:36;4.60;;;2.77;;
17943;SDS011;9097;47.028;15.444;2022-09-30T03:47:43;6.10;;;2.63;;
17943;SDS011;9097;47.028;15.444;2022-09-30T03:50:49;5.90;;;2.20;;
17943;SDS011;9097;47.028;15.444;2022-09-30T03:53:52;4.77;;;3.07;;
17943;SDS011;9097;47.028;15.444;2022-09-30T03:56:55;4.27;;;2.37;;
17943;SDS011;9097;47.028;15.444;2022-09-30T04:00:03;3.97;;;2.00;;
17943;SDS011;9097;47.028;15.444;2022-09-30T04:03:06;6.00;;;3.00;;
17943;SDS011;9097;47.028;15.444;2022-09-30T04:06:10;8.10;;;2.53;;
17943;SDS011;9097;47.028;15.444;2022-09-30T04:09:14;4.57;;;2.57;;
17943;SDS011;9097;47.028;15.444;2022-09-30T04:12:17;3.63;;;2.27;;
17943;SDS011;9097;47.028;15.444;2022-09-30T04:15:19;2.73;;;2.07;;
17943;SDS011;9097;47.028;15.444;2022-09-30T04:18:22;3.10;;;1.57;;
17943;SDS011;9097;47.028;15.444;2022-09-30T04:21:26;2.67;;;2.10;;
17943;SDS011;9097;47.028;15.444;2022-09-30T04:24:29;4.53;;;2.37;;
17943;SDS011;9097;47.028;15.444;2022-09-30T04:27:31;2.93;;;2.03;;
17943;SDS011;9097;47.028;15.444;2022-09-30T04:30:34;3.07;;;2.37;;
17943;SDS011;9097;47.028;15.444;2022-09-30T04:33:39;4.50;;;2.00;;
17943;SDS011;9097;47.028;15.444;2022-09-30T04:36:43;3.97;;;2.00;;
17943;SDS011;9097;47.028;15.444;2022-09-30T04:39:46;5.70;;;2.77;;
17943;SDS011;9097;47.028;15.444;2022-09-30T04:42:48;2.77;;;1.80;;
17943;SDS011;9097;47.028;15.444;2022-09-30T04:45:52;3.70;;;1.50;;
17943;SDS011;9097;47.028;15.444;2022-09-30T04:48:56;3.47;;;2.10;;
17943;SDS011;9097;47.028;15.444;2022-09-30T04:52:00;3.37;;;1.87;;
17943;SDS011;9097;47.028;15.444;2022-09-30T04:55:02;2.30;;;1.53;;
17943;SDS011;9097;47.028;15.444;2022-09-30T04:58:06;3.53;;;2.63;;
17943;SDS011;9097;47.028;15.444;2022-09-30T05:01:09;4.77;;;2.03;;
17943;SDS011;9097;47.028;15.444;2022-09-30T05:04:15;5.00;;;1.63;;
17943;SDS011;9097;47.028;15.444;2022-09-30T05:07:20;2.43;;;2.13;;
17943;SDS011;9097;47.028;15.444;2022-09-30T05:10:23;4.47;;;2.37;;
17943;SDS011;9097;47.028;15.444;2022-09-30T05:13:29;3.13;;;2.03;;
17943;SDS011;9097;47.028;15.444;2022-09-30T05:16:32;2.90;;;1.83;;
17943;SDS011;9097;47.028;15.444;2022-09-30T05:19:35;5.80;;;2.20;;
17943;SDS011;9097;47.028;15.444;2022-09-30T05:22:39;5.20;;;1.77;;
17943;SDS011;9097;47.028;15.444;2022-09-30T05:25:42;3.93;;;1.93;;
17943;SDS011;9097;47.028;15.444;2022-09-30T05:28:45;3.93;;;1.70;;
17943;SDS011;9097;47.028;15.444;2022-09-30T05:31:49;8.40;;;2.40;;
17943;SDS011;9097;47.028;15.444;2022-09-30T05:34:52;4.63;;;3.23;;
17943;SDS011;9097;47.028;15.444;2022-09-30T05:37:58;4.60;;;2.43;;
17943;SDS011;9097;47.028;15.444;2022-09-30T05:41:05;3.73;;;2.47;;
17943;SDS011;9097;47.028;15.444;2022-09-30T05:44:10;3.37;;;2.10;;
17943;SDS011;9097;47.028;15.444;2022-09-30T05:47:13;3.40;;;1.97;;
17943;SDS011;9097;47.028;15.444;2022-09-30T05:50:15;6.23;;;2.13;;
17943;SDS011;9097;47.028;15.444;2022-09-30T05:53:20;4.33;;;2.00;;
17943;SDS011;9097;47.028;15.444;2022-09-30T05:56:23;2.43;;;1.70;;
17943;SDS011;9097;47.028;15.444;2022-09-30T05:59:26;1.90;;;1.50;;
17943;SDS011;9097;47.028;15.444;2022-09-30T06:02:28;3.20;;;1.67;;
17943;SDS011;9097;47.028;15.444;2022-09-30T06:05:31;3.03;;;1.87;;
17943;SDS011;9097;47.028;15.444;2022-09-30T06:08:35;2.57;;;1.67;;
17943;SDS011;9097;47.028;15.444;2022-09-30T06:11:38;3.07;;;1.80;;
17943;SDS011;9097;47.028;15.444;2022-09-30T06:14:41;2.87;;;2.40;;
17943;SDS011;9097;47.028;15.444;2022-09-30T06:17:44;3.07;;;1.87;;
17943;SDS011;9097;47.028;15.444;2022-09-30T06:20:47;4.13;;;2.20;;
17943;SDS011;9097;47.028;15.444;2022-09-30T06:23:51;2.13;;;1.50;;
17943;SDS011;9097;47.028;15.444;2022-09-30T06:26:54;2.70;;;1.30;;
17943;SDS011;9097;47.028;15.444;2022-09-30T06:29:58;3.30;;;1.80;;
17943;SDS011;9097;47.028;15.444;2022-09-30T06:33:01;1.93;;;1.47;;
17943;SDS011;9097;47.028;15.444;2022-09-30T06:36:03;3.10;;;1.87;;
17943;SDS011;9097;47.028;15.444;2022-09-30T06:39:08;4.03;;;2.13;;
17943;SDS011;9097;47.028;15.444;2022-09-30T06:42:10;4.93;;;2.10;;
17943;SDS011;9097;47.028;15.444;2022-09-30T06:45:13;3.93;;;2.10;;
17943;SDS011;9097;47.028;15.444;2022-09-30T06:48:18;3.43;;;1.97;;
17943;SDS011;9097;47.028;15.444;2022-09-30T06:51:22;2.43;;;1.53;;
17943;SDS011;9097;47.028;15.444;2022-09-30T06:54:27;4.83;;;1.27;;
17943;SDS011;9097;47.028;15.444;2022-09-30T06:57:29;2.83;;;1.87;;
17943;SDS011;9097;47.028;15.444;2022-09-30T07:00:32;2.47;;;1.57;;
17943;SDS011;9097;47.028;15.444;2022-09-30T07:03:35;2.03;;;1.47;;
17943;SDS011;9097;47.028;15.444;2022-09-30T07:06:38;2.77;;;1.73;;
17943;SDS011;9097;47.028;15.444;2022-09-30T07:09:42;1.40;;;1.00;;
17943;SDS011;9097;47.028;15.444;2022-09-30T07:12:47;4.17;;;1.90;;
17943;SDS011;9097;47.028;15.444;2022-09-30T07:15:50;5.77;;;2.13;;
17943;SDS011;9097;47.028;15.444;2022-09-30T07:18:54;2.03;;;1.57;;
17943;SDS011;9097;47.028;15.444;2022-09-30T07:21:57;1.83;;;1.50;;
17943;SDS011;9097;47.028;15.444;2022-09-30T07:25:21;2.13;;;1.30;;
17943;SDS011;9097;47.028;15.444;2022-09-30T07:28:24;2.20;;;1.70;;
17943;SDS011;9097;47.028;15.444;2022-09-30T07:31:30;5.13;;;2.20;;
17943;SDS011;9097;47.028;15.444;2022-09-30T07:34:33;3.03;;;2.00;;
17943;SDS011;9097;47.028;15.444;2022-09-30T07:37:36;2.43;;;1.37;;
17943;SDS011;9097;47.028;15.444;2022-09-30T07:40:40;1.83;;;1.27;;
17943;SDS011;9097;47.028;15.444;2022-09-30T07:43:43;2.07;;;1.60;;
17943;SDS011;9097;47.028;15.444;2022-09-30T07:46:46;2.07;;;1.30;;
17943;SDS011;9097;47.028;15.444;2022-09-30T07:49:49;1.30;;;1.13;;
17943;SDS011;9097;47.028;15.444;2022-09-30T07:52:51;3.80;;;1.60;;
17943;SDS011;9097;47.028;15.444;2022-09-30T07:55:56;1.90;;;1.27;;
17943;SDS011;9097;47.028;15.444;2022-09-30T07:59:03;3.63;;;1.90;;
17943;SDS011;9097;47.028;15.444;2022-09-30T08:02:10;2.40;;;1.73;;
17943;SDS011;9097;47.028;15.444;2022-09-30T08:05:14;3.37;;;1.57;;
17943;SDS011;9097;47.028;15.444;2022-09-30T08:08:17;1.57;;;1.33;;
17943;SDS011;9097;47.028;15.444;2022-09-30T08:11:22;2.93;;;1.70;;
17943;SDS011;9097;47.028;15.444;2022-09-30T08:14:25;2.87;;;2.03;;
17943;SDS011;9097;47.028;15.444;2022-09-30T08:17:29;3.67;;;2.57;;
17943;SDS011;9097;47.028;15.444;2022-09-30T08:20:31;4.10;;;2.50;;
17943;SDS011;9097;47.028;15.444;2022-09-30T08:23:34;2.53;;;1.53;;
17943;SDS011;9097;47.028;15.444;2022-09-30T08:26:39;4.20;;;2.10;;
17943;SDS011;9097;47.028;15.444;2022-09-30T08:29:42;1.60;;;1.50;;
17943;SDS011;9097;47.028;15.444;2022-09-30T08:32:46;2.43;;;1.70;;
17943;SDS011;9097;47.028;15.444;2022-09-30T08:35:48;2.30;;;1.47;;
17943;SDS011;9097;47.028;15.444;2022-09-30T08:38:51;2.63;;;1.87;;
17943;SDS011;9097;47.028;15.444;2022-09-30T08:41:59;3.97;;;2.17;;
17943;SDS011;9097;47.028;15.444;2022-09-30T08:45:10;3.30;;;2.27;;
17943;SDS011;9097;47.028;15.444;2022-09-30T08:48:20;3.80;;;1.97;;
17943;SDS011;9097;47.028;15.444;2022-09-30T08:51:27;5.47;;;2.13;;
17943;SDS011;9097;47.028;15.444;2022-09-30T08:54:31;4.27;;;1.90;;
17943;SDS011;9097;47.028;15.444;2022-09-30T08:57:38;2.40;;;1.77;;
17943;SDS011;9097;47.028;15.444;2022-09-30T09:00:42;2.77;;;1.50;;
17943;SDS011;9097;47.028;15.444;2022-09-30T09:03:45;3.53;;;1.75;;
17943;SDS011;9097;47.028;15.444;2022-09-30T09:06:49;1.75;;;1.52;;
17943;SDS011;9097;47.028;15.444;2022-09-30T09:09:57;1.45;;;1.30;;
17943;SDS011;9097;47.028;15.444;2022-09-30T09:13:05;3.70;;;2.13;;
17943;SDS011;9097;47.028;15.444;2022-09-30T09:16:13;1.63;;;1.38;;
17943;SDS011;9097;47.028;15.444;2022-09-30T09:19:18;2.58;;;1.45;;
17943;SDS011;9097;47.028;15.444;2022-09-30T09:22:25;2.53;;;1.70;;
17943;SDS011;9097;47.028;15.444;2022-09-30T09:25:29;1.90;;;1.42;;
17943;SDS011;9097;47.028;15.444;2022-09-30T09:28:34;3.58;;;2.42;;
17943;SDS011;9097;47.028;15.444;2022-09-30T09:31:38;3.78;;;1.90;;
17943;SDS011;9097;47.028;15.444;2022-09-30T09:34:41;4.85;;;1.90;;
17943;SDS011;9097;47.028;15.444;2022-09-30T09:37:48;3.13;;;2.05;;
17943;SDS011;9097;47.028;15.444;2022-09-30T09:41:13;3.83;;;1.58;;
17943;SDS011;9097;47.028;15.444;2022-09-30T09:44:21;2.13;;;1.00;;
17943;SDS011;9097;47.028;15.444;2022-09-30T09:47:26;2.83;;;1.70;;
17943;SDS011;9097;47.028;15.444;2022-09-30T09:50:32;1.50;;;1.40;;
17943;SDS011;9097;47.028;15.444;2022-09-30T09:53:41;4.97;;;1.13;;
17943;SDS011;9097;47.028;15.444;2022-09-30T09:56:45;3.38;;;1.40;;
17943;SDS011;9097;47.028;15.444;2022-09-30T09:59:56;1.88;;;1.27;;
17943;SDS011;9097;47.028;15.444;2022-09-30T10:03:04;1.48;;;1.08;;
17943;SDS011;9097;47.028;15.444;2022-09-30T10:06:09;1.88;;;1.35;;
17943;SDS011;9097;47.028;15.444;2022-09-30T10:09:21;1.95;;;1.38;;
17943;SDS011;9097;47.028;15.444;2022-09-30T10:12:27;2.22;;;1.50;;
17943;SDS011;9097;47.028;15.444;2022-09-30T10:15:31;5.10;;;1.38;;
17943;SDS011;9097;47.028;15.444;2022-09-30T10:18:36;1.42;;;1.13;;
17943;SDS011;9097;47.028;15.444;2022-09-30T10:21:39;1.42;;;1.05;;
17943;SDS011;9097;47.028;15.444;2022-09-30T10:24:42;1.25;;;1.10;;
17943;SDS011;9097;47.028;15.444;2022-09-30T10:27:46;1.92;;;1.20;;
17943;SDS011;9097;47.028;15.444;2022-09-30T10:30:52;1.30;;;1.05;;
17943;SDS011;9097;47.028;15.444;2022-09-30T10:33:58;0.85;;;0.85;;
17943;SDS011;9097;47.028;15.444;2022-09-30T10:37:06;1.95;;;1.17;;
17943;SDS011;9097;47.028;15.444;2022-09-30T10:40:11;1.80;;;1.35;;
17943;SDS011;9097;47.028;15.444;2022-09-30T10:43:19;1.40;;;0.93;;
17943;SDS011;9097;47.028;15.444;2022-09-30T10:46:25;1.77;;;0.95;;
17943;SDS011;9097;47.028;15.444;2022-09-30T10:49:29;1.70;;;0.90;;
17943;SDS011;9097;47.028;15.444;2022-09-30T10:52:33;1.15;;;1.05;;
17943;SDS011;9097;47.028;15.444;2022-09-30T10:55:40;0.60;;;0.60;;
17943;SDS011;9097;47.028;15.444;2022-09-30T10:58:44;1.45;;;0.77;;
17943;SDS011;9097;47.028;15.444;2022-09-30T11:01:51;1.48;;;1.38;;
17943;SDS011;9097;47.028;15.444;2022-09-30T11:04:57;1.42;;;0.77;;
17943;SDS011;9097;47.028;15.444;2022-09-30T11:08:05;1.15;;;0.80;;
17943;SDS011;9097;47.028;15.444;2022-09-30T11:11:13;1.83;;;1.02;;
17943;SDS011;9097;47.028;15.444;2022-09-30T11:14:18;0.80;;;0.80;;
17943;SDS011;9097;47.028;15.444;2022-09-30T11:17:27;0.80;;;0.80;;
17943;SDS011;9097;47.028;15.444;2022-09-30T11:20:31;0.85;;;0.80;;
17943;SDS011;9097;47.028;15.444;2022-09-30T11:23:37;1.90;;;0.90;;
17943;SDS011;9097;47.028;15.444;2022-09-30T11:26:45;1.05;;;0.80;;
17943;SDS011;9097;47.028;15.444;2022-09-30T11:29:50;0.93;;;0.55;;
17943;SDS011;9097;47.028;15.444;2022-09-30T11:32:59;0.77;;;0.50;;
17943;SDS011;9097;47.028;15.444;2022-09-30T11:36:08;1.48;;;1.20;;
17943;SDS011;9097;47.028;15.444;2022-09-30T11:39:19;0.90;;;0.73;;
17943;SDS011;9097;47.028;15.444;2022-09-30T11:42:25;0.77;;;0.57;;
17943;SDS011;9097;47.028;15.444;2022-09-30T11:45:34;1.25;;;0.63;;
17943;SDS011;9097;47.028;15.444;2022-09-30T11:48:45;0.90;;;0.65;;
17943;SDS011;9097;47.028;15.444;2022-09-30T11:51:52;0.40;;;0.40;;
17943;SDS011;9097;47.028;15.444;2022-09-30T11:55:08;0.82;;;0.70;;
17943;SDS011;9097;47.028;15.444;2022-09-30T11:58:16;0.60;;;0.60;;
17943;SDS011;9097;47.028;15.444;2022-09-30T12:01:21;0.82;;;0.80;;
17943;SDS011;9097;47.028;15.444;2022-09-30T12:04:28;1.45;;;0.80;;
17943;SDS011;9097;47.028;15.444;2022-09-30T12:07:37;1.00;;;0.80;;
17943;SDS011;9097;47.028;15.444;2022-09-30T12:10:42;2.97;;;0.80;;
17943;SDS011;9097;47.028;15.444;2022-09-30T12:13:47;1.42;;;0.75;;
17943;SDS011;9097;47.028;15.444;2022-09-30T12:16:52;0.82;;;0.82;;
17943;SDS011;9097;47.028;15.444;2022-09-30T12:19:58;0.73;;;0.60;;
17943;SDS011;9097;47.028;15.444;2022-09-30T12:23:06;0.88;;;0.80;;
17943;SDS011;9097;47.028;15.444;2022-09-30T12:26:12;0.60;;;0.60;;
17943;SDS011;9097;47.028;15.444;2022-09-30T12:29:17;0.95;;;0.73;;
17943;SDS011;9097;47.028;15.444;2022-09-30T12:36:05;0.73;;;0.73;;
17943;SDS011;9097;47.028;15.444;2022-09-30T12:46:04;0.57;;;0.57;;
17943;SDS011;9097;47.028;15.444;2022-09-30T12:49:11;1.45;;;0.63;;
17943;SDS011;9097;47.028;15.444;2022-09-30T12:52:19;0.60;;;0.60;;
17943;SDS011;9097;47.028;15.444;2022-09-30T12:55:24;3.53;;;0.77;;
17943;SDS011;9097;47.028;15.444;2022-09-30T12:58:32;0.77;;;0.60;;
17943;SDS011;9097;47.028;15.444;2022-09-30T13:01:37;0.70;;;0.68;;
17943;SDS011;9097;47.028;15.444;2022-09-30T13:04:41;0.50;;;0.50;;
17943;SDS011;9097;47.028;15.444;2022-09-30T13:11:05;0.52;;;0.40;;
17943;SDS011;9097;47.028;15.444;2022-09-30T13:14:13;3.58;;;0.70;;
17943;SDS011;9097;47.028;15.444;2022-09-30T13:17:26;0.75;;;0.60;;
17943;SDS011;9097;47.028;15.444;2022-09-30T13:23:52;0.38;;;0.38;;
17943;SDS011;9097;47.028;15.444;2022-09-30T13:27:07;0.57;;;0.50;;
17943;SDS011;9097;47.028;15.444;2022-09-30T13:33:41;0.63;;;0.55;;
17943;SDS011;9097;47.028;15.444;2022-09-30T13:36:55;0.65;;;0.63;;
17943;SDS011;9097;47.028;15.444;2022-09-30T13:39:58;1.10;;;0.90;;
17943;SDS011;9097;47.028;15.444;2022-09-30T13:43:03;1.58;;;0.80;;
17943;SDS011;9097;47.028;15.444;2022-09-30T13:46:10;0.60;;;0.60;;
17943;SDS011;9097;47.028;15.444;2022-09-30T13:49:15;0.70;;;0.70;;
17943;SDS011;9097;47.028;15.444;2022-09-30T13:52:21;0.80;;;0.80;;
17943;SDS011;9097;47.028;15.444;2022-09-30T13:55:25;2.17;;;0.95;;
17943;SDS011;9097;47.028;15.444;2022-09-30T13:58:38;1.10;;;1.00;;
17943;SDS011;9097;47.028;15.444;2022-09-30T14:01:52;0.75;;;0.75;;
17943;SDS011;9097;47.028;15.444;2022-09-30T14:05:06;0.70;;;0.70;;
17943;SDS011;9097;47.028;15.444;2022-09-30T14:08:31;1.35;;;0.65;;
17943;SDS011;9097;47.028;15.444;2022-09-30T14:11:48;1.63;;;1.00;;
17943;SDS011;9097;47.028;15.444;2022-09-30T14:18:20;1.05;;;0.90;;
17943;SDS011;9097;47.028;15.444;2022-09-30T14:21:29;0.93;;;0.75;;
17943;SDS011;9097;47.028;15.444;2022-09-30T14:24:35;1.17;;;1.05;;
17943;SDS011;9097;47.028;15.444;2022-09-30T14:27:43;1.38;;;1.27;;
17943;SDS011;9097;47.028;15.444;2022-09-30T14:30:46;0.68;;;0.50;;
17943;SDS011;9097;47.028;15.444;2022-09-30T14:34:04;1.15;;;0.82;;
17943;SDS011;9097;47.028;15.444;2022-09-30T14:37:13;3.30;;;1.05;;
17943;SDS011;9097;47.028;15.444;2022-09-30T14:40:22;0.70;;;0.70;;
17943;SDS011;9097;47.028;15.444;2022-09-30T14:43:26;1.20;;;0.73;;
17943;SDS011;9097;47.028;15.444;2022-09-30T14:46:36;1.33;;;0.85;;
17943;SDS011;9097;47.028;15.444;2022-09-30T14:49:42;2.35;;;1.40;;
17943;SDS011;9097;47.028;15.444;2022-09-30T14:52:47;0.82;;;0.80;;
17943;SDS011;9097;47.028;15.444;2022-09-30T14:55:56;1.08;;;0.88;;
17943;SDS011;9097;47.028;15.444;2022-09-30T14:58:59;1.73;;;0.82;;
17943;SDS011;9097;47.028;15.444;2022-09-30T15:02:03;1.08;;;0.88;;
17943;SDS011;9097;47.028;15.444;2022-09-30T15:05:14;1.45;;;0.90;;
17943;SDS011;9097;47.028;15.444;2022-09-30T15:08:17;0.82;;;0.60;;
17943;SDS011;9097;47.028;15.444;2022-09-30T15:11:22;1.40;;;0.93;;
17943;SDS011;9097;47.028;15.444;2022-09-30T15:14:26;0.75;;;0.75;;
17943;SDS011;9097;47.028;15.444;2022-09-30T15:17:33;1.27;;;1.17;;
17943;SDS011;9097;47.028;15.444;2022-09-30T15:20:38;1.00;;;0.77;;
17943;SDS011;9097;47.028;15.444;2022-09-30T15:23:45;0.77;;;0.70;;
17943;SDS011;9097;47.028;15.444;2022-09-30T15:26:50;0.65;;;0.65;;
17943;SDS011;9097;47.028;15.444;2022-09-30T15:29:54;1.35;;;0.80;;
17943;SDS011;9097;47.028;15.444;2022-09-30T15:32:58;1.02;;;0.85;;
17943;SDS011;9097;47.028;15.444;2022-09-30T15:36:05;0.75;;;0.57;;
17943;SDS011;9097;47.028;15.444;2022-09-30T15:39:17;1.05;;;0.85;;
17943;SDS011;9097;47.028;15.444;2022-09-30T15:42:27;1.13;;;1.00;;
17943;SDS011;9097;47.028;15.444;2022-09-30T15:45:31;1.30;;;1.00;;
17943;SDS011;9097;47.028;15.444;2022-09-30T15:48:34;2.13;;;0.93;;
17943;SDS011;9097;47.028;15.444;2022-09-30T15:51:39;0.80;;;0.75;;
17943;SDS011;9097;47.028;15.444;2022-09-30T15:54:43;1.10;;;0.90;;
17943;SDS011;9097;47.028;15.444;2022-09-30T15:57:47;2.60;;;1.00;;
17943;SDS011;9097;47.028;15.444;2022-09-30T16:00:51;0.98;;;0.82;;
17943;SDS011;9097;47.028;15.444;2022-09-30T16:03:54;1.55;;;0.98;;
17943;SDS011;9097;47.028;15.444;2022-09-30T16:06:59;1.23;;;1.10;;
17943;SDS011;9097;47.028;15.444;2022-09-30T16:10:14;1.73;;;0.87;;
17943;SDS011;9097;47.028;15.444;2022-09-30T16:13:20;2.50;;;0.77;;
17943;SDS011;9097;47.028;15.444;2022-09-30T16:16:25;1.17;;;0.87;;
17943;SDS011;9097;47.028;15.444;2022-09-30T16:19:29;1.10;;;1.00;;
17943;SDS011;9097;47.028;15.444;2022-09-30T16:22:34;0.68;;;0.52;;
17943;SDS011;9097;47.028;15.444;2022-09-30T16:25:38;1.13;;;0.90;;
17943;SDS011;9097;47.028;15.444;2022-09-30T16:28:40;0.95;;;0.80;;
17943;SDS011;9097;47.028;15.444;2022-09-30T16:31:44;1.00;;;0.90;;
17943;SDS011;9097;47.028;15.444;2022-09-30T16:34:47;1.40;;;1.00;;
17943;SDS011;9097;47.028;15.444;2022-09-30T16:37:58;3.40;;;0.90;;
17943;SDS011;9097;47.028;15.444;2022-09-30T16:41:01;2.30;;;1.20;;
17943;SDS011;9097;47.028;15.444;2022-09-30T16:44:04;3.37;;;1.80;;
17943;SDS011;9097;47.028;15.444;2022-09-30T16:47:07;2.00;;;1.57;;
17943;SDS011;9097;47.028;15.444;2022-09-30T16:50:23;1.53;;;1.43;;
17943;SDS011;9097;47.028;15.444;2022-09-30T16:53:28;2.03;;;1.17;;
17943;SDS011;9097;47.028;15.444;2022-09-30T16:56:30;1.97;;;1.40;;
17943;SDS011;9097;47.028;15.444;2022-09-30T16:59:33;0.80;;;0.67;;
17943;SDS011;9097;47.028;15.444;2022-09-30T17:02:37;1.17;;;1.00;;
17943;SDS011;9097;47.028;15.444;2022-09-30T17:05:40;1.45;;;1.20;;
17943;SDS011;9097;47.028;15.444;2022-09-30T17:08:47;2.63;;;1.40;;
17943;SDS011;9097;47.028;15.444;2022-09-30T17:11:49;1.73;;;1.47;;
17943;SDS011;9097;47.028;15.444;2022-09-30T17:14:52;1.40;;;1.30;;
17943;SDS011;9097;47.028;15.444;2022-09-30T17:17:56;1.50;;;1.30;;
17943;SDS011;9097;47.028;15.444;2022-09-30T17:20:58;1.97;;;1.17;;
17943;SDS011;9097;47.028;15.444;2022-09-30T17:24:02;4.23;;;2.13;;
17943;SDS011;9097;47.028;15.444;2022-09-30T17:27:05;1.30;;;1.20;;
17943;SDS011;9097;47.028;15.444;2022-09-30T17:30:08;1.40;;;1.17;;
17943;SDS011;9097;47.028;15.444;2022-09-30T17:33:11;4.07;;;1.43;;
17943;SDS011;9097;47.028;15.444;2022-09-30T17:36:14;1.20;;;1.00;;
17943;SDS011;9097;47.028;15.444;2022-09-30T17:39:19;3.13;;;1.55;;
17943;SDS011;9097;47.028;15.444;2022-09-30T17:42:22;2.03;;;1.47;;
17943;SDS011;9097;47.028;15.444;2022-09-30T17:45:43;1.53;;;1.30;;
17943;SDS011;9097;47.028;15.444;2022-09-30T17:48:46;1.80;;;1.33;;
17943;SDS011;9097;47.028;15.444;2022-09-30T17:51:50;1.70;;;1.60;;
17943;SDS011;9097;47.028;15.444;2022-09-30T17:54:54;2.83;;;1.67;;
17943;SDS011;9097;47.028;15.444;2022-09-30T17:57:57;2.27;;;1.47;;
17943;SDS011;9097;47.028;15.444;2022-09-30T18:01:04;2.73;;;2.03;;
17943;SDS011;9097;47.028;15.444;2022-09-30T18:04:07;3.03;;;2.23;;
17943;SDS011;9097;47.028;15.444;2022-09-30T18:07:10;2.63;;;1.83;;
17943;SDS011;9097;47.028;15.444;2022-09-30T18:10:16;3.87;;;2.10;;
17943;SDS011;9097;47.028;15.444;2022-09-30T18:13:21;2.93;;;2.00;;
17943;SDS011;9097;47.028;15.444;2022-09-30T18:16:24;3.53;;;2.60;;
17943;SDS011;9097;47.028;15.444;2022-09-30T18:19:30;3.60;;;2.30;;
17943;SDS011;9097;47.028;15.444;2022-09-30T18:22:34;4.60;;;2.30;;
17943;SDS011;9097;47.028;15.444;2022-09-30T18:25:38;3.33;;;2.30;;
17943;SDS011;9097;47.028;15.444;2022-09-30T18:28:44;2.03;;;1.50;;
17943;SDS011;9097;47.028;15.444;2022-09-30T18:31:48;2.40;;;1.97;;
17943;SDS011;9097;47.028;15.444;2022-09-30T18:34:52;2.40;;;2.20;;
17943;SDS011;9097;47.028;15.444;2022-09-30T18:37:55;3.27;;;2.20;;
17943;SDS011;9097;47.028;15.444;2022-09-30T18:41:04;5.23;;;3.20;;
17943;SDS011;9097;47.028;15.444;2022-09-30T18:44:07;3.37;;;2.03;;
17943;SDS011;9097;47.028;15.444;2022-09-30T18:47:11;1.93;;;1.47;;
17943;SDS011;9097;47.028;15.444;2022-09-30T18:50:19;1.10;;;1.00;;
17943;SDS011;9097;47.028;15.444;2022-09-30T18:53:27;1.57;;;1.30;;
17943;SDS011;9097;47.028;15.444;2022-09-30T18:56:37;2.37;;;1.50;;
17943;SDS011;9097;47.028;15.444;2022-09-30T18:59:44;1.47;;;1.37;;
17943;SDS011;9097;47.028;15.444;2022-09-30T19:02:50;2.10;;;1.50;;